sensor_id;sensor_type;location;lat;lon;timestamp;temperature;humidity
6106;DHT22;3083;51.508;7.966;2023-06-22T00:00:11;19.70;99.90
6106;DHT22;3083;51.508;7.966;2023-06-22T00:02:39;19.70;99.90
6106;DHT22;3083;51.508;7.966;2023-06-22T00:05:07;19.70;99.90
6106;DHT22;3083;51.508;7.966;2023-06-22T00:07:33;19.60;99.90
6106;DHT22;3083;51.508;7.966;2023-06-22T00:10:00;19.50;99.90
6106;DHT22;3083;51.508;7.966;2023-06-22T00:12:27;19.40;99.90
6106;DHT22;3083;51.508;7.966;2023-06-22T00:14:54;19.40;99.90
6106;DHT22;3083;51.508;7.966;2023-06-22T00:17:21;19.30;99.90
6106;DHT22;3083;51.508;7.966;2023-06-22T00:19:49;19.20;99.90
6106;DHT22;3083;51.508;7.966;2023-06-22T00:22:19;19.20;99.90
6106;DHT22;3083;51.508;7.966;2023-06-22T00:24:54;19.20;99.90
6106;DHT22;3083;51.508;7.966;2023-06-22T00:27:21;19.20;99.90
6106;DHT22;3083;51.508;7.966;2023-06-22T00:29:48;19.30;99.90
6106;DHT22;3083;51.508;7.966;2023-06-22T00:32:15;19.30;99.90
6106;DHT22;3083;51.508;7.966;2023-06-22T00:34:42;19.40;99.90
6106;DHT22;3083;51.508;7.966;2023-06-22T00:37:10;19.40;99.90
6106;DHT22;3083;51.508;7.966;2023-06-22T00:39:37;19.50;99.90
6106;DHT22;3083;51.508;7.966;2023-06-22T00:42:05;19.40;99.90
6106;DHT22;3083;51.508;7.966;2023-06-22T00:44:32;19.40;99.90
6106;DHT22;3083;51.508;7.966;2023-06-22T00:46:58;19.40;99.90
6106;DHT22;3083;51.508;7.966;2023-06-22T00:49:26;19.40;99.90
6106;DHT22;3083;51.508;7.966;2023-06-22T00:51:53;19.40;99.90
6106;DHT22;3083;51.508;7.966;2023-06-22T00:54:22;19.40;99.90
6106;DHT22;3083;51.508;7.966;2023-06-22T00:56:50;19.40;99.90
6106;DHT22;3083;51.508;7.966;2023-06-22T00:59:18;19.50;99.90
6106;DHT22;3083;51.508;7.966;2023-06-22T01:01:45;19.50;99.90
6106;DHT22;3083;51.508;7.966;2023-06-22T01:04:12;19.50;99.90
6106;DHT22;3083;51.508;7.966;2023-06-22T01:06:47;19.50;99.90
6106;DHT22;3083;51.508;7.966;2023-06-22T01:09:28;19.40;99.90
6106;DHT22;3083;51.508;7.966;2023-06-22T01:11:59;19.40;99.90
6106;DHT22;3083;51.508;7.966;2023-06-22T01:14:31;19.40;99.90
6106;DHT22;3083;51.508;7.966;2023-06-22T01:17:04;19.40;99.90
6106;DHT22;3083;51.508;7.966;2023-06-22T01:19:39;19.40;99.90
6106;DHT22;3083;51.508;7.966;2023-06-22T01:22:10;19.40;99.90
6106;DHT22;3083;51.508;7.966;2023-06-22T01:24:51;19.40;99.90
6106;DHT22;3083;51.508;7.966;2023-06-22T01:27:35;19.30;99.90
6106;DHT22;3083;51.508;7.966;2023-06-22T01:30:09;19.30;99.90
6106;DHT22;3083;51.508;7.966;2023-06-22T01:32:38;19.30;99.90
6106;DHT22;3083;51.508;7.966;2023-06-22T01:35:07;19.30;99.90
6106;DHT22;3083;51.508;7.966;2023-06-22T01:37:36;19.40;99.90
6106;DHT22;3083;51.508;7.966;2023-06-22T01:40:05;19.40;99.90
6106;DHT22;3083;51.508;7.966;2023-06-22T01:42:32;19.40;99.90
6106;DHT22;3083;51.508;7.966;2023-06-22T01:45:00;19.50;99.90
6106;DHT22;3083;51.508;7.966;2023-06-22T01:47:29;19.50;99.90
6106;DHT22;3083;51.508;7.966;2023-06-22T01:49:56;19.50;99.90
6106;DHT22;3083;51.508;7.966;2023-06-22T01:52:23;19.60;99.90
6106;DHT22;3083;51.508;7.966;2023-06-22T01:54:50;19.60;99.90
6106;DHT22;3083;51.508;7.966;2023-06-22T01:57:17;19.60;99.90
6106;DHT22;3083;51.508;7.966;2023-06-22T01:59:49;19.60;99.90
6106;DHT22;3083;51.508;7.966;2023-06-22T02:02:20;19.60;99.90
6106;DHT22;3083;51.508;7.966;2023-06-22T02:04:56;19.50;99.90
6106;DHT22;3083;51.508;7.966;2023-06-22T02:07:28;19.50;99.90
6106;DHT22;3083;51.508;7.966;2023-06-22T02:09:58;19.40;99.90
6106;DHT22;3083;51.508;7.966;2023-06-22T02:12:26;19.40;99.90
6106;DHT22;3083;51.508;7.966;2023-06-22T02:14:54;19.50;99.90
6106;DHT22;3083;51.508;7.966;2023-06-22T02:17:22;19.50;99.90
6106;DHT22;3083;51.508;7.966;2023-06-22T02:19:50;19.50;99.90
6106;DHT22;3083;51.508;7.966;2023-06-22T02:22:18;19.50;99.90
6106;DHT22;3083;51.508;7.966;2023-06-22T02:24:45;19.50;99.90
6106;DHT22;3083;51.508;7.966;2023-06-22T02:27:12;19.40;99.90
6106;DHT22;3083;51.508;7.966;2023-06-22T02:29:39;19.40;99.90
6106;DHT22;3083;51.508;7.966;2023-06-22T02:32:06;19.30;99.90
6106;DHT22;3083;51.508;7.966;2023-06-22T02:34:33;19.30;99.90
6106;DHT22;3083;51.508;7.966;2023-06-22T02:37:00;19.30;99.90
6106;DHT22;3083;51.508;7.966;2023-06-22T02:39:29;19.40;99.90
6106;DHT22;3083;51.508;7.966;2023-06-22T02:41:56;19.40;99.90
6106;DHT22;3083;51.508;7.966;2023-06-22T02:44:23;19.40;99.90
6106;DHT22;3083;51.508;7.966;2023-06-22T02:46:50;19.40;99.90
6106;DHT22;3083;51.508;7.966;2023-06-22T02:49:17;19.30;99.90
6106;DHT22;3083;51.508;7.966;2023-06-22T02:51:46;19.30;99.90
6106;DHT22;3083;51.508;7.966;2023-06-22T02:54:13;19.20;99.90
6106;DHT22;3083;51.508;7.966;2023-06-22T02:56:41;19.10;99.90
6106;DHT22;3083;51.508;7.966;2023-06-22T02:59:09;19.10;99.90
6106;DHT22;3083;51.508;7.966;2023-06-22T03:01:36;19.20;99.90
6106;DHT22;3083;51.508;7.966;2023-06-22T03:04:05;19.20;99.90
6106;DHT22;3083;51.508;7.966;2023-06-22T03:06:33;19.20;99.90
6106;DHT22;3083;51.508;7.966;2023-06-22T03:09:01;19.20;99.90
6106;DHT22;3083;51.508;7.966;2023-06-22T03:11:29;19.10;99.90
6106;DHT22;3083;51.508;7.966;2023-06-22T03:13:58;19.10;99.90
6106;DHT22;3083;51.508;7.966;2023-06-22T03:16:25;19.10;99.90
6106;DHT22;3083;51.508;7.966;2023-06-22T03:18:52;19.00;99.90
6106;DHT22;3083;51.508;7.966;2023-06-22T03:21:21;18.90;99.90
6106;DHT22;3083;51.508;7.966;2023-06-22T03:23:48;18.90;99.90
6106;DHT22;3083;51.508;7.966;2023-06-22T03:26:16;18.90;99.90
6106;DHT22;3083;51.508;7.966;2023-06-22T03:28:43;18.90;99.90
6106;DHT22;3083;51.508;7.966;2023-06-22T03:31:11;18.80;99.90
6106;DHT22;3083;51.508;7.966;2023-06-22T03:33:38;18.70;99.90
6106;DHT22;3083;51.508;7.966;2023-06-22T03:36:05;18.70;99.90
6106;DHT22;3083;51.508;7.966;2023-06-22T03:38:32;18.70;99.90
6106;DHT22;3083;51.508;7.966;2023-06-22T03:40:59;18.70;99.90
6106;DHT22;3083;51.508;7.966;2023-06-22T03:43:26;18.70;99.90
6106;DHT22;3083;51.508;7.966;2023-06-22T03:45:53;18.80;99.90
6106;DHT22;3083;51.508;7.966;2023-06-22T03:48:21;18.80;99.90
6106;DHT22;3083;51.508;7.966;2023-06-22T03:50:48;18.80;99.90
6106;DHT22;3083;51.508;7.966;2023-06-22T03:53:15;18.90;99.90
6106;DHT22;3083;51.508;7.966;2023-06-22T03:55:49;19.00;99.90
6106;DHT22;3083;51.508;7.966;2023-06-22T03:58:16;19.00;99.90
6106;DHT22;3083;51.508;7.966;2023-06-22T04:00:45;19.00;99.90
6106;DHT22;3083;51.508;7.966;2023-06-22T04:03:12;19.10;99.90
6106;DHT22;3083;51.508;7.966;2023-06-22T04:05:41;19.10;99.90
6106;DHT22;3083;51.508;7.966;2023-06-22T04:08:08;19.20;99.90
6106;DHT22;3083;51.508;7.966;2023-06-22T04:10:35;19.30;99.90
6106;DHT22;3083;51.508;7.966;2023-06-22T04:13:02;19.40;99.90
6106;DHT22;3083;51.508;7.966;2023-06-22T04:15:28;19.40;99.90
6106;DHT22;3083;51.508;7.966;2023-06-22T04:17:56;19.40;99.90
6106;DHT22;3083;51.508;7.966;2023-06-22T04:20:23;19.50;99.90
6106;DHT22;3083;51.508;7.966;2023-06-22T04:22:52;19.50;99.90
6106;DHT22;3083;51.508;7.966;2023-06-22T04:25:19;19.50;99.90
6106;DHT22;3083;51.508;7.966;2023-06-22T04:27:46;19.50;99.90
6106;DHT22;3083;51.508;7.966;2023-06-22T04:30:13;19.60;99.90
6106;DHT22;3083;51.508;7.966;2023-06-22T04:32:42;19.60;99.90
6106;DHT22;3083;51.508;7.966;2023-06-22T04:35:09;19.70;99.90
6106;DHT22;3083;51.508;7.966;2023-06-22T04:37:36;19.70;99.90
6106;DHT22;3083;51.508;7.966;2023-06-22T04:40:06;19.80;99.90
6106;DHT22;3083;51.508;7.966;2023-06-22T04:42:34;19.90;99.90
6106;DHT22;3083;51.508;7.966;2023-06-22T04:45:01;20.00;99.90
6106;DHT22;3083;51.508;7.966;2023-06-22T04:47:28;20.00;99.90
6106;DHT22;3083;51.508;7.966;2023-06-22T04:49:55;20.00;99.90
6106;DHT22;3083;51.508;7.966;2023-06-22T04:52:22;20.00;99.90
6106;DHT22;3083;51.508;7.966;2023-06-22T04:54:50;20.00;99.90
6106;DHT22;3083;51.508;7.966;2023-06-22T04:57:22;20.10;99.90
6106;DHT22;3083;51.508;7.966;2023-06-22T04:59:56;20.10;99.90
6106;DHT22;3083;51.508;7.966;2023-06-22T05:02:23;20.10;99.90
6106;DHT22;3083;51.508;7.966;2023-06-22T05:04:58;20.00;99.90
6106;DHT22;3083;51.508;7.966;2023-06-22T05:07:25;20.00;99.90
6106;DHT22;3083;51.508;7.966;2023-06-22T05:09:52;19.90;99.90
6106;DHT22;3083;51.508;7.966;2023-06-22T05:12:19;19.80;99.90
6106;DHT22;3083;51.508;7.966;2023-06-22T05:14:47;19.70;99.90
6106;DHT22;3083;51.508;7.966;2023-06-22T05:17:14;19.60;99.90
6106;DHT22;3083;51.508;7.966;2023-06-22T05:19:44;19.60;99.90
6106;DHT22;3083;51.508;7.966;2023-06-22T05:22:15;19.50;99.90
6106;DHT22;3083;51.508;7.966;2023-06-22T05:24:42;19.40;99.90
6106;DHT22;3083;51.508;7.966;2023-06-22T05:27:09;19.40;99.90
6106;DHT22;3083;51.508;7.966;2023-06-22T05:29:36;19.40;99.90
6106;DHT22;3083;51.508;7.966;2023-06-22T05:32:05;19.30;99.90
6106;DHT22;3083;51.508;7.966;2023-06-22T05:34:32;19.30;99.90
6106;DHT22;3083;51.508;7.966;2023-06-22T05:36:59;19.30;99.90
6106;DHT22;3083;51.508;7.966;2023-06-22T05:39:26;19.30;99.90
6106;DHT22;3083;51.508;7.966;2023-06-22T05:41:53;19.20;99.90
6106;DHT22;3083;51.508;7.966;2023-06-22T05:44:20;19.10;99.90
6106;DHT22;3083;51.508;7.966;2023-06-22T05:46:47;19.10;99.90
6106;DHT22;3083;51.508;7.966;2023-06-22T05:49:15;19.10;99.90
6106;DHT22;3083;51.508;7.966;2023-06-22T05:51:42;19.10;99.90
6106;DHT22;3083;51.508;7.966;2023-06-22T05:54:09;19.10;99.90
6106;DHT22;3083;51.508;7.966;2023-06-22T05:56:38;19.20;99.90
6106;DHT22;3083;51.508;7.966;2023-06-22T05:59:05;19.20;99.90
6106;DHT22;3083;51.508;7.966;2023-06-22T06:01:32;19.40;99.90
6106;DHT22;3083;51.508;7.966;2023-06-22T06:04:01;19.40;99.90
6106;DHT22;3083;51.508;7.966;2023-06-22T06:06:30;19.50;99.90
6106;DHT22;3083;51.508;7.966;2023-06-22T06:08:57;19.50;99.90
6106;DHT22;3083;51.508;7.966;2023-06-22T06:11:25;19.50;99.90
6106;DHT22;3083;51.508;7.966;2023-06-22T06:13:52;19.50;99.90
6106;DHT22;3083;51.508;7.966;2023-06-22T06:16:19;19.50;99.90
6106;DHT22;3083;51.508;7.966;2023-06-22T06:18:46;19.60;99.90
6106;DHT22;3083;51.508;7.966;2023-06-22T06:21:14;19.60;99.90
6106;DHT22;3083;51.508;7.966;2023-06-22T06:23:42;19.70;99.90
6106;DHT22;3083;51.508;7.966;2023-06-22T06:26:09;19.80;99.90
6106;DHT22;3083;51.508;7.966;2023-06-22T06:28:35;19.90;99.90
6106;DHT22;3083;51.508;7.966;2023-06-22T06:31:02;19.90;99.90
6106;DHT22;3083;51.508;7.966;2023-06-22T06:33:32;20.00;99.90
6106;DHT22;3083;51.508;7.966;2023-06-22T06:35:59;20.00;99.90
6106;DHT22;3083;51.508;7.966;2023-06-22T06:38:28;20.10;99.90
6106;DHT22;3083;51.508;7.966;2023-06-22T06:40:57;20.10;99.90
6106;DHT22;3083;51.508;7.966;2023-06-22T06:43:24;20.20;99.90
6106;DHT22;3083;51.508;7.966;2023-06-22T06:45:51;20.30;99.90
6106;DHT22;3083;51.508;7.966;2023-06-22T06:48:18;20.30;99.90
6106;DHT22;3083;51.508;7.966;2023-06-22T06:50:45;20.40;99.90
6106;DHT22;3083;51.508;7.966;2023-06-22T06:53:11;20.50;99.90
6106;DHT22;3083;51.508;7.966;2023-06-22T06:55:38;20.50;99.90
6106;DHT22;3083;51.508;7.966;2023-06-22T06:58:06;20.60;99.90
6106;DHT22;3083;51.508;7.966;2023-06-22T07:00:35;20.70;99.90
6106;DHT22;3083;51.508;7.966;2023-06-22T07:03:02;20.80;99.90
6106;DHT22;3083;51.508;7.966;2023-06-22T07:05:29;20.90;99.90
6106;DHT22;3083;51.508;7.966;2023-06-22T07:07:56;20.90;99.90
6106;DHT22;3083;51.508;7.966;2023-06-22T07:10:23;21.00;99.90
6106;DHT22;3083;51.508;7.966;2023-06-22T07:12:49;21.10;99.90
6106;DHT22;3083;51.508;7.966;2023-06-22T07:15:18;21.20;99.90
6106;DHT22;3083;51.508;7.966;2023-06-22T07:17:44;21.30;99.90
6106;DHT22;3083;51.508;7.966;2023-06-22T07:20:12;21.40;99.90
6106;DHT22;3083;51.508;7.966;2023-06-22T07:22:39;21.50;99.90
6106;DHT22;3083;51.508;7.966;2023-06-22T07:25:07;21.60;99.90
6106;DHT22;3083;51.508;7.966;2023-06-22T07:27:36;21.70;99.90
6106;DHT22;3083;51.508;7.966;2023-06-22T07:30:05;21.80;99.90
6106;DHT22;3083;51.508;7.966;2023-06-22T07:32:33;21.90;99.90
6106;DHT22;3083;51.508;7.966;2023-06-22T07:35:00;22.00;99.90
6106;DHT22;3083;51.508;7.966;2023-06-22T07:37:28;22.10;99.90
6106;DHT22;3083;51.508;7.966;2023-06-22T07:39:55;22.10;99.90
6106;DHT22;3083;51.508;7.966;2023-06-22T07:42:24;22.20;99.90
6106;DHT22;3083;51.508;7.966;2023-06-22T07:44:51;22.20;99.90
6106;DHT22;3083;51.508;7.966;2023-06-22T07:47:18;22.40;99.90
6106;DHT22;3083;51.508;7.966;2023-06-22T07:49:46;22.60;99.90
6106;DHT22;3083;51.508;7.966;2023-06-22T07:52:13;22.70;99.90
6106;DHT22;3083;51.508;7.966;2023-06-22T07:54:40;23.00;99.90
6106;DHT22;3083;51.508;7.966;2023-06-22T07:57:06;23.10;99.90
6106;DHT22;3083;51.508;7.966;2023-06-22T07:59:33;23.20;99.90
6106;DHT22;3083;51.508;7.966;2023-06-22T08:02:00;23.30;99.90
6106;DHT22;3083;51.508;7.966;2023-06-22T08:04:28;23.50;99.90
6106;DHT22;3083;51.508;7.966;2023-06-22T08:06:57;23.60;99.90
6106;DHT22;3083;51.508;7.966;2023-06-22T08:09:24;23.80;99.90
6106;DHT22;3083;51.508;7.966;2023-06-22T08:11:51;23.90;99.90
6106;DHT22;3083;51.508;7.966;2023-06-22T08:14:18;24.10;99.90
6106;DHT22;3083;51.508;7.966;2023-06-22T08:16:45;24.40;99.90
6106;DHT22;3083;51.508;7.966;2023-06-22T08:19:11;24.90;99.90
6106;DHT22;3083;51.508;7.966;2023-06-22T08:21:38;25.40;99.90
6106;DHT22;3083;51.508;7.966;2023-06-22T08:24:07;25.70;99.90
6106;DHT22;3083;51.508;7.966;2023-06-22T08:26:34;25.80;99.90
6106;DHT22;3083;51.508;7.966;2023-06-22T08:29:03;25.90;99.90
6106;DHT22;3083;51.508;7.966;2023-06-22T08:31:30;25.80;99.90
6106;DHT22;3083;51.508;7.966;2023-06-22T08:33:57;25.90;99.90
6106;DHT22;3083;51.508;7.966;2023-06-22T08:36:24;26.00;99.90
6106;DHT22;3083;51.508;7.966;2023-06-22T08:38:54;26.20;99.90
6106;DHT22;3083;51.508;7.966;2023-06-22T08:41:28;26.50;99.90
6106;DHT22;3083;51.508;7.966;2023-06-22T08:43:55;26.90;99.90
6106;DHT22;3083;51.508;7.966;2023-06-22T08:46:22;27.20;99.90
6106;DHT22;3083;51.508;7.966;2023-06-22T08:48:55;27.50;99.90
6106;DHT22;3083;51.508;7.966;2023-06-22T08:51:22;27.80;99.90
6106;DHT22;3083;51.508;7.966;2023-06-22T08:53:49;28.00;99.90
6106;DHT22;3083;51.508;7.966;2023-06-22T08:56:16;28.00;99.90
6106;DHT22;3083;51.508;7.966;2023-06-22T08:58:44;28.00;99.90
6106;DHT22;3083;51.508;7.966;2023-06-22T09:01:11;27.80;99.90
6106;DHT22;3083;51.508;7.966;2023-06-22T09:03:38;27.70;99.90
6106;DHT22;3083;51.508;7.966;2023-06-22T09:06:05;27.40;99.90
6106;DHT22;3083;51.508;7.966;2023-06-22T09:08:32;27.20;99.90
6106;DHT22;3083;51.508;7.966;2023-06-22T09:10:59;27.10;99.90
6106;DHT22;3083;51.508;7.966;2023-06-22T09:13:25;27.20;99.90
6106;DHT22;3083;51.508;7.966;2023-06-22T09:15:54;27.20;99.90
6106;DHT22;3083;51.508;7.966;2023-06-22T09:18:21;27.20;99.90
6106;DHT22;3083;51.508;7.966;2023-06-22T09:20:48;27.60;99.90
6106;DHT22;3083;51.508;7.966;2023-06-22T09:23:15;27.90;99.90
6106;DHT22;3083;51.508;7.966;2023-06-22T09:25:42;28.10;99.90
6106;DHT22;3083;51.508;7.966;2023-06-22T09:28:09;28.30;99.90
6106;DHT22;3083;51.508;7.966;2023-06-22T09:30:35;28.50;99.90
6106;DHT22;3083;51.508;7.966;2023-06-22T09:33:04;28.60;99.90
6106;DHT22;3083;51.508;7.966;2023-06-22T09:35:30;28.80;99.90
6106;DHT22;3083;51.508;7.966;2023-06-22T09:37:57;29.00;99.90
6106;DHT22;3083;51.508;7.966;2023-06-22T09:40:24;29.30;99.90
6106;DHT22;3083;51.508;7.966;2023-06-22T09:42:51;29.50;99.90
6106;DHT22;3083;51.508;7.966;2023-06-22T09:45:18;29.60;99.90
6106;DHT22;3083;51.508;7.966;2023-06-22T09:47:45;29.80;99.90
6106;DHT22;3083;51.508;7.966;2023-06-22T09:50:13;30.00;99.90
6106;DHT22;3083;51.508;7.966;2023-06-22T09:52:40;30.00;99.90
6106;DHT22;3083;51.508;7.966;2023-06-22T09:55:10;29.70;99.90
6106;DHT22;3083;51.508;7.966;2023-06-22T09:57:37;29.70;99.90
6106;DHT22;3083;51.508;7.966;2023-06-22T10:00:04;29.60;99.90
6106;DHT22;3083;51.508;7.966;2023-06-22T10:02:34;29.40;99.90
6106;DHT22;3083;51.508;7.966;2023-06-22T10:05:01;29.20;99.90
6106;DHT22;3083;51.508;7.966;2023-06-22T10:07:29;29.00;99.90
6106;DHT22;3083;51.508;7.966;2023-06-22T10:09:56;28.90;99.90
6106;DHT22;3083;51.508;7.966;2023-06-22T10:12:22;28.80;99.90
6106;DHT22;3083;51.508;7.966;2023-06-22T10:14:49;28.50;99.90
6106;DHT22;3083;51.508;7.966;2023-06-22T10:17:16;28.30;99.90
6106;DHT22;3083;51.508;7.966;2023-06-22T10:19:43;28.10;99.90
6106;DHT22;3083;51.508;7.966;2023-06-22T10:22:10;27.80;99.90
6106;DHT22;3083;51.508;7.966;2023-06-22T10:24:38;27.70;99.90
6106;DHT22;3083;51.508;7.966;2023-06-22T10:27:10;27.70;99.90
6106;DHT22;3083;51.508;7.966;2023-06-22T10:29:37;27.50;99.90
6106;DHT22;3083;51.508;7.966;2023-06-22T10:32:05;27.30;99.90
6106;DHT22;3083;51.508;7.966;2023-06-22T10:34:32;27.20;99.90
6106;DHT22;3083;51.508;7.966;2023-06-22T10:36:59;27.00;99.90
6106;DHT22;3083;51.508;7.966;2023-06-22T10:39:26;26.90;99.90
6106;DHT22;3083;51.508;7.966;2023-06-22T10:41:54;26.80;99.90
6106;DHT22;3083;51.508;7.966;2023-06-22T10:44:21;26.70;99.90
6106;DHT22;3083;51.508;7.966;2023-06-22T10:46:48;26.70;99.90
6106;DHT22;3083;51.508;7.966;2023-06-22T10:49:15;26.60;99.90
6106;DHT22;3083;51.508;7.966;2023-06-22T10:51:42;26.50;99.90
6106;DHT22;3083;51.508;7.966;2023-06-22T10:54:08;26.50;99.90
6106;DHT22;3083;51.508;7.966;2023-06-22T10:56:35;26.50;99.90
6106;DHT22;3083;51.508;7.966;2023-06-22T10:59:03;26.40;99.90
6106;DHT22;3083;51.508;7.966;2023-06-22T11:01:30;26.40;99.90
6106;DHT22;3083;51.508;7.966;2023-06-22T11:03:59;26.40;99.90
6106;DHT22;3083;51.508;7.966;2023-06-22T11:06:25;26.40;99.90
6106;DHT22;3083;51.508;7.966;2023-06-22T11:08:52;26.50;99.90
6106;DHT22;3083;51.508;7.966;2023-06-22T11:11:19;26.40;99.90
6106;DHT22;3083;51.508;7.966;2023-06-22T11:13:46;26.40;99.90
6106;DHT22;3083;51.508;7.966;2023-06-22T11:16:14;26.40;99.90
6106;DHT22;3083;51.508;7.966;2023-06-22T11:18:41;26.30;99.90
6106;DHT22;3083;51.508;7.966;2023-06-22T11:21:08;26.30;99.90
6106;DHT22;3083;51.508;7.966;2023-06-22T11:23:35;26.40;99.90
6106;DHT22;3083;51.508;7.966;2023-06-22T11:26:02;26.50;99.90
6106;DHT22;3083;51.508;7.966;2023-06-22T11:28:29;26.60;99.90
6106;DHT22;3083;51.508;7.966;2023-06-22T11:30:55;26.70;99.90
6106;DHT22;3083;51.508;7.966;2023-06-22T11:33:24;26.70;99.90
6106;DHT22;3083;51.508;7.966;2023-06-22T11:35:51;26.80;99.90
6106;DHT22;3083;51.508;7.966;2023-06-22T11:38:18;26.80;99.90
6106;DHT22;3083;51.508;7.966;2023-06-22T11:40:45;26.70;99.90
6106;DHT22;3083;51.508;7.966;2023-06-22T11:43:12;26.60;99.90
6106;DHT22;3083;51.508;7.966;2023-06-22T11:45:40;26.40;99.90
6106;DHT22;3083;51.508;7.966;2023-06-22T11:48:07;26.20;99.90
6106;DHT22;3083;51.508;7.966;2023-06-22T11:50:35;26.00;99.90
6106;DHT22;3083;51.508;7.966;2023-06-22T11:53:02;25.80;99.90
6106;DHT22;3083;51.508;7.966;2023-06-22T11:55:29;25.50;99.90
6106;DHT22;3083;51.508;7.966;2023-06-22T11:57:57;25.30;99.90
6106;DHT22;3083;51.508;7.966;2023-06-22T12:00:28;25.10;99.90
6106;DHT22;3083;51.508;7.966;2023-06-22T12:02:55;24.90;99.90
6106;DHT22;3083;51.508;7.966;2023-06-22T12:05:22;24.70;99.90
6106;DHT22;3083;51.508;7.966;2023-06-22T12:07:53;24.70;99.90
6106;DHT22;3083;51.508;7.966;2023-06-22T12:10:20;24.60;99.90
6106;DHT22;3083;51.508;7.966;2023-06-22T12:12:47;24.50;99.90
6106;DHT22;3083;51.508;7.966;2023-06-22T12:15:14;24.40;99.90
6106;DHT22;3083;51.508;7.966;2023-06-22T12:17:41;24.30;99.90
6106;DHT22;3083;51.508;7.966;2023-06-22T12:20:09;24.30;99.90
6106;DHT22;3083;51.508;7.966;2023-06-22T12:22:35;24.10;99.90
6106;DHT22;3083;51.508;7.966;2023-06-22T12:25:05;24.10;99.90
6106;DHT22;3083;51.508;7.966;2023-06-22T12:27:32;24.00;99.90
6106;DHT22;3083;51.508;7.966;2023-06-22T12:29:59;23.90;99.90
6106;DHT22;3083;51.508;7.966;2023-06-22T12:32:26;23.80;99.90
6106;DHT22;3083;51.508;7.966;2023-06-22T12:34:53;23.70;99.90
6106;DHT22;3083;51.508;7.966;2023-06-22T12:37:20;23.70;99.90
6106;DHT22;3083;51.508;7.966;2023-06-22T12:39:46;23.60;99.90
6106;DHT22;3083;51.508;7.966;2023-06-22T12:42:15;23.50;99.90
6106;DHT22;3083;51.508;7.966;2023-06-22T12:44:42;23.40;99.90
6106;DHT22;3083;51.508;7.966;2023-06-22T12:47:10;23.30;99.90
6106;DHT22;3083;51.508;7.966;2023-06-22T12:49:37;23.20;99.90
6106;DHT22;3083;51.508;7.966;2023-06-22T12:52:08;23.10;99.90
6106;DHT22;3083;51.508;7.966;2023-06-22T12:54:35;23.00;99.90
6106;DHT22;3083;51.508;7.966;2023-06-22T12:57:02;22.90;99.90
6106;DHT22;3083;51.508;7.966;2023-06-22T12:59:31;22.80;99.90
6106;DHT22;3083;51.508;7.966;2023-06-22T13:01:58;22.70;99.90
6106;DHT22;3083;51.508;7.966;2023-06-22T13:04:24;22.60;99.90
6106;DHT22;3083;51.508;7.966;2023-06-22T13:06:51;22.30;99.90
6106;DHT22;3083;51.508;7.966;2023-06-22T13:09:19;22.10;99.90
6106;DHT22;3083;51.508;7.966;2023-06-22T13:11:46;21.80;99.90
6106;DHT22;3083;51.508;7.966;2023-06-22T13:14:12;21.50;99.90
6106;DHT22;3083;51.508;7.966;2023-06-22T13:16:43;21.30;99.90
6106;DHT22;3083;51.508;7.966;2023-06-22T13:19:09;21.10;99.90
6106;DHT22;3083;51.508;7.966;2023-06-22T13:21:36;21.00;99.90
6106;DHT22;3083;51.508;7.966;2023-06-22T13:24:04;20.80;99.90
6106;DHT22;3083;51.508;7.966;2023-06-22T13:26:31;20.70;99.90
6106;DHT22;3083;51.508;7.966;2023-06-22T13:28:59;20.60;99.90
6106;DHT22;3083;51.508;7.966;2023-06-22T13:31:25;20.50;99.90
6106;DHT22;3083;51.508;7.966;2023-06-22T13:33:54;20.50;99.90
6106;DHT22;3083;51.508;7.966;2023-06-22T13:36:20;20.60;99.90
6106;DHT22;3083;51.508;7.966;2023-06-22T13:38:48;20.60;99.90
6106;DHT22;3083;51.508;7.966;2023-06-22T13:41:15;20.60;99.90
6106;DHT22;3083;51.508;7.966;2023-06-22T13:43:42;20.70;99.90
6106;DHT22;3083;51.508;7.966;2023-06-22T13:46:09;20.80;99.90
6106;DHT22;3083;51.508;7.966;2023-06-22T13:48:36;20.80;99.90
6106;DHT22;3083;51.508;7.966;2023-06-22T13:51:04;20.90;99.90
6106;DHT22;3083;51.508;7.966;2023-06-22T13:53:31;21.20;99.90
6106;DHT22;3083;51.508;7.966;2023-06-22T13:55:58;21.30;99.90
6106;DHT22;3083;51.508;7.966;2023-06-22T13:58:25;21.50;99.90
6106;DHT22;3083;51.508;7.966;2023-06-22T14:00:52;21.60;99.90
6106;DHT22;3083;51.508;7.966;2023-06-22T14:03:18;21.70;99.90
6106;DHT22;3083;51.508;7.966;2023-06-22T14:05:45;21.90;99.90
6106;DHT22;3083;51.508;7.966;2023-06-22T14:08:14;22.10;99.90
6106;DHT22;3083;51.508;7.966;2023-06-22T14:10:40;22.50;99.90
6106;DHT22;3083;51.508;7.966;2023-06-22T14:13:07;22.90;99.90
6106;DHT22;3083;51.508;7.966;2023-06-22T14:15:34;23.10;99.90
6106;DHT22;3083;51.508;7.966;2023-06-22T14:18:01;23.30;99.90
6106;DHT22;3083;51.508;7.966;2023-06-22T14:20:28;23.40;99.90
6106;DHT22;3083;51.508;7.966;2023-06-22T14:22:54;23.50;99.90
6106;DHT22;3083;51.508;7.966;2023-06-22T14:25:23;23.70;99.90
6106;DHT22;3083;51.508;7.966;2023-06-22T14:27:49;23.70;99.90
6106;DHT22;3083;51.508;7.966;2023-06-22T14:30:16;23.90;99.90
6106;DHT22;3083;51.508;7.966;2023-06-22T14:32:43;24.00;99.90
6106;DHT22;3083;51.508;7.966;2023-06-22T14:35:11;24.10;99.90
6106;DHT22;3083;51.508;7.966;2023-06-22T14:37:37;24.20;99.90
6106;DHT22;3083;51.508;7.966;2023-06-22T14:40:05;24.20;99.90
6106;DHT22;3083;51.508;7.966;2023-06-22T14:42:33;24.20;99.90
6106;DHT22;3083;51.508;7.966;2023-06-22T14:45:00;24.20;99.90
6106;DHT22;3083;51.508;7.966;2023-06-22T14:47:27;24.20;99.90
6106;DHT22;3083;51.508;7.966;2023-06-22T14:49:54;24.20;99.90
6106;DHT22;3083;51.508;7.966;2023-06-22T14:52:21;24.20;99.90
6106;DHT22;3083;51.508;7.966;2023-06-22T14:54:48;24.20;99.90
6106;DHT22;3083;51.508;7.966;2023-06-22T14:57:17;24.10;99.90
6106;DHT22;3083;51.508;7.966;2023-06-22T14:59:46;24.10;99.90
6106;DHT22;3083;51.508;7.966;2023-06-22T15:02:14;24.10;99.90
6106;DHT22;3083;51.508;7.966;2023-06-22T15:04:41;24.10;99.90
6106;DHT22;3083;51.508;7.966;2023-06-22T15:07:08;24.20;99.90
6106;DHT22;3083;51.508;7.966;2023-06-22T15:09:35;24.30;99.90
6106;DHT22;3083;51.508;7.966;2023-06-22T15:12:05;24.20;99.90
6106;DHT22;3083;51.508;7.966;2023-06-22T15:14:37;24.20;99.90
6106;DHT22;3083;51.508;7.966;2023-06-22T15:17:06;24.10;99.90
6106;DHT22;3083;51.508;7.966;2023-06-22T15:19:34;24.00;99.90
6106;DHT22;3083;51.508;7.966;2023-06-22T15:22:02;23.90;99.90
6106;DHT22;3083;51.508;7.966;2023-06-22T15:24:29;23.80;99.90
6106;DHT22;3083;51.508;7.966;2023-06-22T15:26:56;23.70;99.90
6106;DHT22;3083;51.508;7.966;2023-06-22T15:29:23;23.60;99.90
6106;DHT22;3083;51.508;7.966;2023-06-22T15:31:51;23.50;99.90
6106;DHT22;3083;51.508;7.966;2023-06-22T15:34:19;23.40;99.90
6106;DHT22;3083;51.508;7.966;2023-06-22T15:36:46;23.30;99.90
6106;DHT22;3083;51.508;7.966;2023-06-22T15:39:13;23.20;99.90
6106;DHT22;3083;51.508;7.966;2023-06-22T15:41:40;23.10;99.90
6106;DHT22;3083;51.508;7.966;2023-06-22T15:44:07;23.00;99.90
6106;DHT22;3083;51.508;7.966;2023-06-22T15:46:34;22.80;99.90
6106;DHT22;3083;51.508;7.966;2023-06-22T15:49:01;22.70;99.90
6106;DHT22;3083;51.508;7.966;2023-06-22T15:51:29;22.60;99.90
6106;DHT22;3083;51.508;7.966;2023-06-22T15:53:56;22.60;99.90
6106;DHT22;3083;51.508;7.966;2023-06-22T15:56:23;22.50;99.90
6106;DHT22;3083;51.508;7.966;2023-06-22T15:58:50;22.40;99.90
6106;DHT22;3083;51.508;7.966;2023-06-22T16:01:17;22.40;99.90
6106;DHT22;3083;51.508;7.966;2023-06-22T16:03:44;22.40;99.90